Terminal Aerodrome Forecast
Issued by NWS

Home | Current Version | Previous Version | Text Only | Print | Product List | Glossary On
Versions: 1 2 3 4 5 6 7 8 9 10 11 12 13 14 15
000
FTUS44 KMOB 091142
TAFBFM
TAF
KBFM 091142Z 0912/1012 35013KT P6SM FEW120
     FM091500 36014G20KT P6SM FEW250
     FM100000 36008KT P6SM SKC=

USA.gov is the U.S. government's official web portal to all federal, state and local government web resources and services.